createdAt,value
2018-12-24T00:00:17.514Z,98.33
2018-12-24T00:01:17.506Z,98.33
2018-12-24T00:02:17.494Z,98.43
2018-12-24T00:03:17.481Z,98.43
2018-12-24T00:04:17.471Z,98.22
2018-12-24T00:05:17.516Z,98.43
2018-12-24T00:06:17.458Z,98.64
2018-12-24T00:07:17.436Z,98.64
2018-12-24T00:08:17.426Z,98.54
2018-12-24T00:09:17.415Z,98.64
2018-12-24T00:10:17.403Z,98.64
2018-12-24T00:11:17.395Z,98.74
2018-12-24T00:12:17.393Z,98.85
2018-12-24T00:13:17.371Z,98.64
2018-12-24T00:14:17.360Z,98.54
2018-12-24T00:15:17.348Z,98.33
2018-12-24T00:16:17.337Z,98.43
2018-12-24T00:17:17.327Z,98.12
2018-12-24T00:18:17.318Z,98.33
2018-12-24T00:19:17.305Z,98.33
2018-12-24T00:20:17.295Z,98.48
2018-12-24T00:21:17.285Z,98.79
2018-12-24T00:22:17.274Z,99.06
2018-12-24T00:23:17.260Z,98.95
2018-12-24T00:24:17.250Z,98.79
2018-12-24T00:25:17.239Z,98.48
2018-12-24T00:26:17.230Z,97.76
2018-12-24T00:27:17.217Z,97.96
2018-12-24T00:28:17.206Z,98.27
2018-12-24T00:29:17.192Z,98.07
2018-12-24T00:30:17.183Z,97.55
2018-12-24T00:31:17.174Z,97.96
2018-12-24T00:32:17.161Z,98.07
2018-12-24T00:33:17.150Z,98.27
2018-12-24T00:34:17.138Z,98.27
2018-12-24T00:35:17.128Z,98.27
2018-12-24T00:36:17.118Z,98.38
2018-12-24T00:37:17.107Z,98.48
2018-12-24T00:38:17.098Z,98.48
2018-12-24T00:39:17.088Z,98.58
2018-12-24T00:40:17.072Z,98.58
2018-12-24T00:41:17.063Z,98.38
2018-12-24T00:42:17.052Z,97.65
2018-12-24T00:43:17.041Z,97.76
2018-12-24T00:44:17.029Z,98.07
2018-12-24T00:45:17.020Z,97.76
2018-12-24T00:46:17.008Z,97.76
2018-12-24T00:47:16.998Z,97.55
2018-12-24T00:48:17.096Z,97.24
2018-12-24T00:49:16.976Z,97.14
2018-12-24T00:50:16.974Z,97.29
2018-12-24T00:51:16.952Z,97.29
2018-12-24T00:52:16.943Z,97.18
2018-12-24T00:53:16.933Z,96.66
2018-12-24T00:54:16.922Z,96.66
2018-12-24T00:55:16.910Z,96.87
2018-12-24T00:56:16.898Z,96.25
2018-12-24T00:57:16.886Z,95.84
2018-12-24T00:58:16.875Z,96.25
2018-12-24T00:59:16.865Z,96.15
2018-12-24T01:00:16.860Z,96.25
2018-12-24T01:01:16.849Z,96.46
2018-12-24T01:02:16.831Z,96.46
2018-12-24T01:03:16.823Z,96.46
2018-12-24T01:04:16.812Z,96.77
2018-12-24T01:05:16.798Z,97.33
2018-12-24T01:06:16.793Z,97.22
2018-12-24T01:07:16.777Z,97.33
2018-12-24T01:08:16.768Z,97.33
2018-12-24T01:09:16.756Z,97.22
2018-12-24T01:10:16.745Z,97.02
2018-12-24T01:11:16.733Z,97.33
2018-12-24T01:12:24.378Z,97.74
2018-12-24T01:13:37.895Z,97.85
2018-12-24T01:14:37.881Z,97.33
2018-12-24T01:15:37.871Z,97.43
2018-12-24T01:16:37.860Z,97.64
2018-12-24T01:17:37.849Z,97.74
2018-12-24T01:18:37.839Z,97.54
2018-12-24T01:19:37.829Z,97.74
2018-12-24T01:20:37.817Z,97.85
2018-12-24T01:21:37.806Z,97.54
2018-12-24T01:22:37.796Z,97.33
2018-12-24T01:23:37.785Z,97.22
2018-12-24T01:24:37.866Z,97.02
2018-12-24T01:25:37.760Z,97.02
2018-12-24T01:26:37.751Z,96.61
2018-12-24T01:27:37.738Z,96.82
2018-12-24T01:28:37.729Z,97.12
2018-12-24T01:29:37.716Z,96.82
2018-12-24T01:30:37.708Z,96.50
2018-12-24T01:31:37.696Z,96.92
2018-12-24T01:32:37.685Z,97.22
2018-12-24T01:33:37.682Z,97.12
2018-12-24T01:34:37.662Z,96.82
2018-12-24T01:35:37.652Z,96.50
2018-12-24T01:36:37.641Z,96.82
2018-12-24T01:37:37.629Z,96.82
2018-12-24T01:38:37.621Z,96.09
2018-12-24T01:39:37.608Z,96.50
2018-12-24T01:40:37.597Z,96.82
2018-12-24T01:41:37.585Z,96.19
2018-12-24T01:42:37.576Z,95.57
2018-12-24T01:43:37.564Z,95.57
2018-12-24T01:44:37.553Z,94.64
2018-12-24T01:45:37.540Z,94.33
2018-12-24T01:46:37.531Z,94.79
2018-12-24T01:47:37.521Z,94.79
2018-12-24T01:48:37.511Z,94.89
2018-12-24T01:49:37.498Z,95.10
2018-12-24T01:50:37.488Z,95.31
2018-12-24T01:51:37.476Z,95.52
2018-12-24T01:52:37.466Z,95.52
2018-12-24T01:53:37.453Z,94.58
2018-12-24T01:54:37.444Z,94.89
2018-12-24T01:55:37.435Z,95.10
2018-12-24T01:56:37.422Z,95.52
2018-12-24T01:57:37.410Z,95.72
2018-12-24T01:58:37.400Z,95.93
2018-12-24T01:59:37.388Z,96.03
2018-12-24T02:00:37.387Z,96.03
2018-12-24T02:01:37.366Z,95.62
2018-12-24T02:02:37.355Z,95.93
2018-12-24T02:03:37.346Z,95.31
2018-12-24T02:04:37.335Z,95.31
2018-12-24T02:05:37.321Z,95.20
2018-12-24T02:06:37.314Z,95.20
2018-12-24T02:07:37.303Z,95.00
2018-12-24T02:08:37.289Z,95.31
2018-12-24T02:09:37.279Z,95.31
2018-12-24T02:10:37.268Z,95.31
2018-12-24T02:11:37.258Z,95.00
2018-12-24T02:12:42.178Z,95.20
2018-12-24T02:13:37.235Z,95.20
2018-12-24T02:14:37.223Z,95.20
2018-12-24T02:15:37.214Z,95.20
2018-12-24T02:16:37.201Z,95.00
2018-12-24T02:17:37.191Z,95.10
2018-12-24T02:18:37.179Z,94.79
2018-12-24T02:19:37.167Z,95.00
2018-12-24T02:20:37.156Z,95.52
2018-12-24T02:21:37.146Z,95.31
2018-12-24T02:22:37.141Z,95.20
2018-12-24T02:23:37.123Z,95.62
2018-12-24T02:24:37.115Z,96.13
2018-12-24T02:25:37.102Z,96.24
2018-12-24T02:26:37.092Z,96.03
2018-12-24T02:27:37.081Z,95.83
2018-12-24T02:28:37.071Z,95.93
2018-12-24T02:29:37.060Z,95.72
2018-12-24T02:30:37.049Z,95.72
2018-12-24T02:31:37.039Z,95.83
2018-12-24T02:32:37.026Z,95.72
2018-12-24T02:33:37.014Z,95.52
2018-12-24T02:34:37.004Z,95.83
2018-12-24T02:35:36.993Z,95.41
2018-12-24T02:36:36.984Z,95.62
2018-12-24T02:37:36.970Z,95.83
2018-12-24T02:38:36.959Z,96.03
2018-12-24T02:39:36.955Z,96.13
2018-12-24T02:40:36.943Z,96.13
2018-12-24T02:41:36.927Z,96.13
2018-12-24T02:42:36.915Z,95.93
2018-12-24T02:43:36.904Z,95.93
2018-12-24T02:44:36.895Z,95.93
2018-12-24T02:45:36.885Z,95.78
2018-12-24T02:46:36.871Z,95.78
2018-12-24T02:47:36.859Z,95.98
2018-12-24T02:48:36.852Z,95.62
2018-12-24T02:49:36.838Z,95.52
2018-12-24T02:50:36.827Z,95.62
2018-12-24T02:51:36.816Z,95.83
2018-12-24T02:52:36.809Z,95.83
2018-12-24T02:53:36.796Z,95.83
2018-12-24T02:54:36.782Z,95.93
2018-12-24T02:55:36.770Z,96.03
2018-12-24T02:56:36.762Z,95.83
2018-12-24T02:57:36.749Z,95.52
2018-12-24T02:58:36.738Z,95.62
2018-12-24T02:59:36.729Z,95.72
2018-12-24T03:00:36.718Z,95.72
2018-12-24T03:01:36.709Z,96.03
2018-12-24T03:02:36.694Z,95.93
2018-12-24T03:03:36.685Z,96.24
2018-12-24T03:04:36.676Z,96.03
2018-12-24T03:05:36.665Z,96.03
2018-12-24T03:06:36.652Z,96.24
2018-12-24T03:07:36.640Z,96.34
2018-12-24T03:08:36.633Z,96.03
2018-12-24T03:09:36.620Z,96.34
2018-12-24T03:10:36.609Z,96.55
2018-12-24T03:11:36.599Z,96.34
2018-12-24T03:12:36.589Z,96.19
2018-12-24T03:13:36.592Z,96.19
2018-12-24T03:14:36.567Z,96.24
2018-12-24T03:15:36.555Z,96.55
2018-12-24T03:16:36.553Z,96.34
2018-12-24T03:17:36.536Z,96.44
2018-12-24T03:18:36.523Z,96.65
2018-12-24T03:19:36.513Z,96.13
2018-12-24T03:20:36.502Z,96.44
2018-12-24T03:21:36.489Z,96.65
2018-12-24T03:22:36.482Z,96.44
2018-12-24T03:23:36.468Z,96.09
2018-12-24T03:24:36.460Z,95.98
2018-12-24T03:25:36.447Z,96.19
2018-12-24T03:26:36.435Z,95.98
2018-12-24T03:27:36.426Z,96.19
2018-12-24T03:28:36.416Z,96.19
2018-12-24T03:29:36.404Z,96.30
2018-12-24T03:30:36.579Z,96.09
2018-12-24T03:31:36.398Z,96.09
2018-12-24T03:32:36.372Z,96.09
2018-12-24T03:33:36.364Z,95.88
2018-12-24T03:34:36.350Z,95.78
2018-12-24T03:35:36.341Z,95.88
2018-12-24T03:36:36.326Z,96.09
2018-12-24T03:37:36.320Z,95.88
2018-12-24T03:38:36.303Z,96.19
2018-12-24T03:39:36.293Z,96.40
2018-12-24T03:40:36.283Z,96.19
2018-12-24T03:41:36.270Z,95.88
2018-12-24T03:42:36.261Z,96.09
2018-12-24T03:43:36.252Z,95.98
2018-12-24T03:44:36.253Z,96.40
2018-12-24T03:45:36.239Z,96.50
2018-12-24T03:46:36.219Z,96.50
2018-12-24T03:47:36.209Z,96.19
2018-12-24T03:48:36.195Z,96.09
2018-12-24T03:49:36.186Z,96.09
2018-12-24T03:50:36.174Z,95.98
2018-12-24T03:51:36.165Z,95.98
2018-12-24T03:52:36.152Z,96.30
2018-12-24T03:53:36.141Z,95.98
2018-12-24T03:54:36.132Z,96.09
2018-12-24T03:55:36.121Z,95.78
2018-12-24T03:56:36.182Z,95.78
2018-12-24T03:57:36.096Z,95.98
2018-12-24T03:58:36.088Z,96.19
2018-12-24T03:59:36.075Z,96.40
2018-12-24T04:00:36.063Z,96.19
2018-12-24T04:01:36.053Z,96.09
2018-12-24T04:02:36.042Z,95.98
2018-12-24T04:03:36.031Z,95.47
2018-12-24T04:04:36.028Z,95.67
2018-12-24T04:05:36.009Z,95.67
2018-12-24T04:06:35.999Z,95.67
2018-12-24T04:07:35.989Z,95.16
2018-12-24T04:08:35.981Z,95.16
2018-12-24T04:09:35.968Z,94.85
2018-12-24T04:10:35.957Z,95.06
2018-12-24T04:11:35.942Z,94.64
2018-12-24T04:12:35.933Z,94.75
2018-12-24T04:13:35.920Z,94.75
2018-12-24T04:14:35.916Z,95.16
2018-12-24T04:15:35.897Z,94.85
2018-12-24T04:16:35.889Z,94.75
2018-12-24T04:17:35.882Z,94.89
2018-12-24T04:18:35.888Z,95.20
2018-12-24T04:19:35.867Z,95.62
2018-12-24T04:20:35.845Z,95.62
2018-12-24T04:21:35.832Z,95.62
2018-12-24T04:22:35.822Z,95.72
2018-12-24T04:23:35.814Z,95.72
2018-12-24T04:24:35.809Z,95.62
2018-12-24T04:25:35.792Z,95.62
2018-12-24T04:26:35.778Z,95.62
2018-12-24T04:27:41.722Z,95.62
2018-12-24T04:28:36.786Z,95.72
2018-12-24T04:29:35.745Z,95.83
2018-12-24T04:30:35.734Z,95.83
2018-12-24T04:31:35.724Z,95.93
2018-12-24T04:32:35.715Z,96.03
2018-12-24T04:33:35.703Z,96.13
2018-12-24T04:34:35.690Z,96.13
2018-12-24T04:35:35.683Z,96.03
2018-12-24T04:36:35.671Z,96.13
2018-12-24T04:37:35.657Z,95.72
2018-12-24T04:38:35.649Z,95.62
2018-12-24T04:39:35.649Z,95.83
2018-12-24T04:40:35.626Z,96.13
2018-12-24T04:41:35.615Z,96.34
2018-12-24T04:42:35.603Z,96.65
2018-12-24T04:43:35.594Z,96.55
2018-12-24T04:44:35.583Z,96.55
2018-12-24T04:45:35.572Z,96.13
2018-12-24T04:46:35.560Z,95.93
2018-12-24T04:47:35.551Z,96.03
2018-12-24T04:48:35.538Z,96.13
2018-12-24T04:49:35.527Z,96.13
2018-12-24T04:50:35.518Z,95.93
2018-12-24T04:51:35.506Z,95.57
2018-12-24T04:52:35.496Z,95.06
2018-12-24T04:53:35.483Z,94.95
2018-12-24T04:54:35.473Z,95.16
2018-12-24T04:55:35.465Z,95.37
2018-12-24T04:56:35.451Z,95.26
2018-12-24T04:57:35.442Z,95.16
2018-12-24T04:58:35.430Z,94.64
2018-12-24T04:59:35.423Z,94.75
2018-12-24T05:00:35.409Z,94.75
2018-12-24T05:01:35.397Z,94.43
2018-12-24T05:02:35.388Z,94.33
2018-12-24T05:03:35.373Z,94.03
2018-12-24T05:04:35.363Z,94.03
2018-12-24T05:05:35.353Z,94.33
2018-12-24T05:06:35.342Z,94.03
2018-12-24T05:07:35.330Z,93.82
2018-12-24T05:08:35.321Z,93.71
2018-12-24T05:09:35.309Z,93.82
2018-12-24T05:10:35.301Z,93.82
2018-12-24T05:11:35.288Z,94.03
2018-12-24T05:12:35.276Z,94.03
2018-12-24T05:13:40.806Z,94.23
2018-12-24T05:14:35.256Z,94.33
2018-12-24T05:15:35.242Z,94.23
2018-12-24T05:16:35.232Z,94.03
2018-12-24T05:17:35.221Z,93.82
2018-12-24T05:18:35.211Z,93.92
2018-12-24T05:19:35.197Z,94.03
2018-12-24T05:20:35.188Z,94.23
2018-12-24T05:21:35.177Z,93.61
2018-12-24T05:22:35.166Z,93.71
2018-12-24T05:23:35.156Z,94.03
2018-12-24T05:24:35.145Z,94.33
2018-12-24T05:25:35.132Z,94.48
2018-12-24T05:26:35.122Z,94.48
2018-12-24T05:27:35.112Z,94.48
2018-12-24T05:28:35.102Z,94.68
2018-12-24T05:29:35.089Z,94.89
2018-12-24T05:30:35.080Z,94.68
2018-12-24T05:31:35.070Z,94.58
2018-12-24T05:32:35.059Z,94.37
2018-12-24T05:33:35.046Z,94.58
2018-12-24T05:34:35.036Z,94.73
2018-12-24T05:35:35.024Z,94.73
2018-12-24T05:36:35.015Z,94.83
2018-12-24T05:37:35.001Z,94.94
2018-12-24T05:38:34.990Z,95.04
2018-12-24T05:39:34.979Z,95.14
2018-12-24T05:40:34.968Z,95.50
2018-12-24T05:41:34.958Z,95.60
2018-12-24T05:42:34.947Z,95.81
2018-12-24T05:43:34.936Z,96.12
2018-12-24T05:44:34.925Z,96.22
2018-12-24T05:45:34.914Z,96.33
2018-12-24T05:46:34.902Z,96.43
2018-12-24T05:47:34.892Z,96.39
2018-12-24T05:48:34.882Z,96.28
2018-12-24T05:49:34.868Z,95.97
2018-12-24T05:50:34.860Z,96.08
2018-12-24T05:51:34.848Z,96.18
2018-12-24T05:52:34.835Z,96.28
2018-12-24T05:53:34.929Z,96.28
2018-12-24T05:54:34.814Z,96.28
2018-12-24T05:55:34.806Z,96.28
2018-12-24T05:56:34.794Z,96.24
2018-12-24T05:57:34.781Z,95.93
2018-12-24T05:58:34.770Z,95.93
2018-12-24T05:59:34.757Z,96.13
2018-12-24T06:00:34.746Z,96.13
2018-12-24T06:01:34.739Z,95.93
2018-12-24T06:02:34.796Z,95.62
2018-12-24T06:03:34.712Z,95.72
2018-12-24T06:04:34.706Z,95.93
2018-12-24T06:05:34.693Z,95.72
2018-12-24T06:06:34.681Z,95.52
2018-12-24T06:07:34.771Z,95.83
2018-12-24T06:08:34.659Z,95.93
2018-12-24T06:09:34.648Z,96.03
2018-12-24T06:10:34.637Z,96.03
2018-12-24T06:11:34.625Z,96.03
2018-12-24T06:12:34.614Z,96.13
2018-12-24T06:13:34.603Z,96.13
2018-12-24T06:14:34.594Z,96.13
2018-12-24T06:15:34.583Z,96.13
2018-12-24T06:16:34.571Z,96.24
2018-12-24T06:17:34.560Z,96.24
2018-12-24T06:18:34.549Z,96.13
2018-12-24T06:19:34.541Z,95.93
2018-12-24T06:20:37.750Z,95.83
2018-12-24T06:21:34.517Z,95.78
2018-12-24T06:22:34.504Z,95.78
2018-12-24T06:23:34.494Z,95.78
2018-12-24T06:24:34.489Z,95.98
2018-12-24T06:25:34.482Z,95.88
2018-12-24T06:26:34.462Z,95.57
2018-12-24T06:27:34.453Z,95.47
2018-12-24T06:28:34.439Z,95.57
2018-12-24T06:29:34.429Z,95.57
2018-12-24T06:30:34.421Z,95.78
2018-12-24T06:31:35.794Z,95.88
2018-12-24T06:32:34.394Z,96.13
2018-12-24T06:33:34.384Z,95.93
2018-12-24T06:34:34.374Z,95.93
2018-12-24T06:35:34.365Z,95.93
2018-12-24T06:36:34.352Z,96.13
2018-12-24T06:37:34.342Z,96.13
2018-12-24T06:38:34.329Z,96.34
2018-12-24T06:39:34.320Z,96.44
2018-12-24T06:40:34.309Z,96.55
2018-12-24T06:41:34.298Z,96.55
2018-12-24T06:42:34.298Z,96.13
2018-12-24T06:43:34.273Z,95.62
2018-12-24T06:44:34.266Z,95.62
2018-12-24T06:45:34.254Z,95.41
2018-12-24T06:46:34.241Z,95.72
2018-12-24T06:47:34.234Z,95.62
2018-12-24T06:48:34.221Z,95.72
2018-12-24T06:49:34.208Z,95.41
2018-12-24T06:50:34.198Z,95.31
2018-12-24T06:51:34.185Z,95.41
2018-12-24T06:52:34.175Z,95.41
2018-12-24T06:53:34.165Z,95.62
2018-12-24T06:54:34.157Z,95.83
2018-12-24T06:55:34.144Z,96.03
2018-12-24T06:56:34.131Z,96.13
2018-12-24T06:57:34.122Z,96.13
2018-12-24T06:58:34.111Z,96.30
2018-12-24T06:59:34.100Z,96.40
2018-12-24T07:00:34.090Z,96.09
2018-12-24T07:01:34.078Z,95.67
2018-12-24T07:02:34.067Z,95.67
2018-12-24T07:03:34.056Z,95.26
2018-12-24T07:04:34.043Z,95.37
2018-12-24T07:05:34.034Z,95.16
2018-12-24T07:06:34.023Z,95.26
2018-12-24T07:07:34.012Z,95.37
2018-12-24T07:08:34.001Z,95.47
2018-12-24T07:09:33.990Z,94.85
2018-12-24T07:10:33.980Z,94.85
2018-12-24T07:11:33.969Z,94.81
2018-12-24T07:12:33.959Z,94.70
2018-12-24T07:13:33.952Z,94.39
2018-12-24T07:14:33.933Z,93.98
2018-12-24T07:15:33.922Z,93.87
2018-12-24T07:16:33.912Z,93.78
2018-12-24T07:17:33.904Z,94.18
2018-12-24T07:18:33.927Z,94.60
2018-12-24T07:19:33.882Z,94.81
2018-12-24T07:20:33.869Z,95.01
2018-12-24T07:21:33.858Z,95.22
2018-12-24T07:22:33.851Z,95.32
2018-12-24T07:23:33.837Z,95.12
2018-12-24T07:24:33.823Z,95.42
2018-12-24T07:25:33.815Z,94.81
2018-12-24T07:26:33.804Z,94.60
2018-12-24T07:27:33.791Z,94.60
2018-12-24T07:28:33.781Z,94.60
2018-12-24T07:29:33.771Z,94.39
2018-12-24T07:30:33.760Z,94.39
2018-12-24T07:31:33.749Z,94.39
2018-12-24T07:32:33.739Z,94.18
2018-12-24T07:33:33.725Z,94.29
2018-12-24T07:34:33.741Z,94.35
2018-12-24T07:35:33.703Z,94.35
2018-12-24T07:36:33.693Z,94.66
2018-12-24T07:37:33.682Z,94.81
2018-12-24T07:38:33.671Z,94.97
2018-12-24T07:39:33.661Z,94.81
2018-12-24T07:40:33.650Z,94.70
2018-12-24T07:41:33.639Z,94.18
2018-12-24T07:42:33.628Z,93.57
2018-12-24T07:43:33.615Z,93.57
2018-12-24T07:44:33.607Z,93.26
2018-12-24T07:45:33.596Z,93.15
2018-12-24T07:46:33.586Z,93.15
2018-12-24T07:47:33.571Z,93.11
2018-12-24T07:48:33.560Z,93.36
2018-12-24T07:49:33.554Z,93.15
2018-12-24T07:50:33.540Z,92.63
2018-12-24T07:51:33.528Z,92.80
2018-12-24T07:52:33.520Z,92.08
2018-12-24T07:53:35.287Z,91.97
2018-12-24T07:54:33.496Z,92.18
2018-12-24T07:55:33.485Z,92.70
2018-12-24T07:56:33.475Z,92.59
2018-12-24T07:57:33.464Z,92.70
2018-12-24T07:58:33.452Z,92.49
2018-12-24T07:59:33.440Z,92.49
2018-12-24T08:00:33.430Z,92.70
2018-12-24T08:01:33.420Z,92.70
2018-12-24T08:02:33.409Z,92.18
2018-12-24T08:03:33.401Z,92.80
2018-12-24T08:04:33.388Z,92.39
2018-12-24T08:05:33.381Z,92.39
2018-12-24T08:06:33.364Z,93.21
2018-12-24T08:07:33.356Z,93.01
2018-12-24T08:08:33.345Z,92.39
2018-12-24T08:09:33.331Z,92.59
2018-12-24T08:10:33.324Z,92.49
2018-12-24T08:11:33.312Z,92.39
2018-12-24T08:12:33.300Z,92.70
2018-12-24T08:13:33.288Z,93.01
2018-12-24T08:14:33.495Z,93.32
2018-12-24T08:15:33.270Z,93.63
2018-12-24T08:16:33.254Z,93.63
2018-12-24T08:17:33.246Z,93.42
2018-12-24T08:18:33.234Z,92.90
2018-12-24T08:19:33.223Z,92.59
2018-12-24T08:20:33.210Z,92.49
2018-12-24T08:21:33.204Z,92.49
2018-12-24T08:22:33.190Z,92.39
2018-12-24T08:23:33.179Z,92.49
2018-12-24T08:24:33.171Z,92.59
2018-12-24T08:25:33.156Z,92.70
2018-12-24T08:26:33.147Z,92.39
2018-12-24T08:27:33.136Z,92.59
2018-12-24T08:28:33.126Z,92.80
2018-12-24T08:29:33.114Z,92.18
2018-12-24T08:30:33.103Z,91.35
2018-12-24T08:31:33.092Z,91.05
2018-12-24T08:32:33.196Z,90.11
2018-12-24T08:33:33.071Z,90.74
2018-12-24T08:34:33.059Z,91.77
2018-12-24T08:35:33.049Z,91.97
2018-12-24T08:36:33.039Z,91.97
2018-12-24T08:37:33.025Z,92.49
2018-12-24T08:38:33.018Z,93.11
2018-12-24T08:39:33.005Z,91.15
2018-12-24T08:40:32.998Z,91.56
2018-12-24T08:41:32.983Z,90.74
2018-12-24T08:42:32.973Z,89.70
2018-12-24T08:43:32.960Z,88.15
2018-12-24T08:44:41.580Z,89.19
2018-12-24T08:45:54.122Z,89.50
2018-12-24T08:46:54.108Z,90.11
2018-12-24T08:47:54.098Z,89.91
2018-12-24T08:48:54.089Z,90.11
2018-12-24T08:49:54.085Z,90.42
2018-12-24T08:50:54.067Z,90.74
2018-12-24T08:51:54.056Z,90.84
2018-12-24T08:52:54.044Z,91.15
2018-12-24T08:53:54.032Z,91.15
2018-12-24T08:54:54.024Z,89.81
2018-12-24T08:55:54.012Z,89.19
2018-12-24T08:56:54.000Z,88.78
2018-12-24T08:57:53.988Z,89.91
2018-12-24T08:58:53.981Z,90.84
2018-12-24T08:59:53.966Z,89.39
2018-12-24T09:00:53.957Z,89.60
2018-12-24T09:01:53.945Z,90.22
2018-12-24T09:02:53.936Z,90.94
2018-12-24T09:03:53.923Z,91.46
2018-12-24T09:04:53.911Z,91.77
2018-12-24T09:05:53.902Z,90.94
2018-12-24T09:06:53.889Z,91.77
2018-12-24T09:07:53.878Z,91.87
2018-12-24T09:08:53.869Z,91.97
2018-12-24T09:09:53.857Z,91.87
2018-12-24T09:10:53.848Z,90.94
2018-12-24T09:11:53.836Z,90.84
2018-12-24T09:12:53.825Z,91.21
2018-12-24T09:13:53.813Z,91.72
2018-12-24T09:14:53.803Z,92.24
2018-12-24T09:15:53.802Z,91.93
2018-12-24T09:16:53.780Z,91.93
2018-12-24T09:17:53.772Z,92.14
2018-12-24T09:18:53.760Z,92.04
2018-12-24T09:19:53.750Z,92.24
2018-12-24T09:20:53.736Z,92.76
2018-12-24T09:21:53.727Z,92.24
2018-12-24T09:22:53.717Z,92.14
2018-12-24T09:23:53.704Z,92.65
2018-12-24T09:24:53.693Z,93.07
2018-12-24T09:25:53.682Z,92.96
2018-12-24T09:26:53.672Z,92.55
2018-12-24T09:27:53.661Z,92.14
2018-12-24T09:28:53.652Z,91.32
2018-12-24T09:29:53.639Z,91.11
2018-12-24T09:30:53.629Z,90.38
2018-12-24T09:31:53.620Z,90.59
2018-12-24T09:32:53.606Z,90.18
2018-12-24T09:33:53.595Z,90.08
2018-12-24T09:34:53.597Z,89.56
2018-12-24T09:35:53.750Z,90.28
2018-12-24T09:36:53.564Z,90.59
2018-12-24T09:37:53.550Z,90.69
2018-12-24T09:38:53.540Z,90.08
2018-12-24T09:39:53.534Z,90.35
2018-12-24T09:40:53.517Z,90.35
2018-12-24T09:41:53.511Z,89.83
2018-12-24T09:42:53.497Z,89.62
2018-12-24T09:43:53.487Z,88.28
2018-12-24T09:44:58.886Z,87.76
2018-12-24T09:45:53.464Z,87.97
2018-12-24T09:46:53.452Z,88.69
2018-12-24T09:47:53.444Z,88.07
2018-12-24T09:48:53.430Z,88.28
2018-12-24T09:49:53.424Z,88.34
2018-12-24T09:50:53.409Z,87.66
2018-12-24T09:51:53.400Z,87.87
2018-12-24T09:52:53.387Z,86.12
2018-12-24T09:53:53.377Z,85.60
2018-12-24T09:54:53.366Z,86.42
2018-12-24T09:55:53.356Z,87.35
2018-12-24T09:56:53.346Z,83.43
2018-12-24T09:57:53.333Z,83.85
2018-12-24T09:58:53.325Z,84.16
2018-12-24T09:59:53.313Z,83.23
2018-12-24T10:00:53.303Z,82.71
2018-12-24T10:01:53.294Z,82.71
2018-12-24T10:02:53.287Z,83.85
2018-12-24T10:03:53.270Z,82.20
2018-12-24T10:04:53.259Z,79.51
2018-12-24T10:05:53.248Z,80.96
2018-12-24T10:06:53.237Z,79.51
2018-12-24T10:07:53.225Z,79.41
2018-12-24T10:08:53.214Z,79.62
2018-12-24T10:09:53.202Z,79.62
2018-12-24T10:10:53.194Z,80.34
2018-12-24T10:11:53.181Z,80.03
2018-12-24T10:12:53.171Z,80.13
2018-12-24T10:13:53.160Z,80.37
2018-12-24T10:14:53.148Z,79.24
2018-12-24T10:15:53.137Z,80.17
2018-12-24T10:16:53.128Z,80.58
2018-12-24T10:17:53.118Z,78.11
2018-12-24T10:18:53.105Z,79.65
2018-12-24T10:19:53.093Z,78.62
2018-12-24T10:20:53.085Z,77.07
2018-12-24T10:21:53.077Z,78.93
2018-12-24T10:22:53.061Z,78.93
2018-12-24T10:23:53.053Z,79.04
2018-12-24T10:24:53.041Z,76.97
2018-12-24T10:25:53.029Z,77.17
2018-12-24T10:26:53.019Z,77.69
2018-12-24T10:27:53.007Z,77.59
2018-12-24T10:28:52.998Z,75.84
2018-12-24T10:29:52.987Z,77.17
2018-12-24T10:30:52.974Z,76.56
2018-12-24T10:31:52.964Z,76.35
2018-12-24T10:32:52.953Z,74.60
2018-12-24T10:33:52.940Z,75.63
2018-12-24T10:34:52.929Z,76.77
2018-12-24T10:35:52.919Z,75.53
2018-12-24T10:36:52.909Z,76.66
2018-12-24T10:37:52.898Z,74.90
2018-12-24T10:38:52.888Z,75.97
2018-12-24T10:39:52.875Z,77.31
2018-12-24T10:40:52.866Z,78.35
2018-12-24T10:41:52.857Z,76.53
2018-12-24T10:42:52.843Z,77.04
2018-12-24T10:43:52.833Z,77.14
2018-12-24T10:44:52.822Z,76.32
2018-12-24T10:45:52.810Z,78.17
2018-12-24T10:46:52.802Z,78.63
2018-12-24T10:47:52.787Z,77.18
2018-12-24T10:48:52.779Z,77.70
2018-12-24T10:49:52.766Z,77.14
2018-12-24T10:50:52.755Z,76.42
2018-12-24T10:51:52.746Z,77.45
2018-12-24T10:52:52.735Z,79.41
2018-12-24T10:53:52.727Z,78.80
2018-12-24T10:54:52.712Z,78.83
2018-12-24T10:55:52.702Z,78.52
2018-12-24T10:56:52.817Z,78.94
2018-12-24T10:57:52.680Z,78.63
2018-12-24T10:58:52.669Z,76.45
2018-12-24T10:59:52.659Z,77.80
2018-12-24T11:00:52.648Z,78.52
2018-12-24T11:01:52.639Z,77.80
2018-12-24T11:02:52.627Z,78.77
2018-12-24T11:03:52.616Z,78.35
2018-12-24T11:04:52.603Z,79.18
2018-12-24T11:05:52.594Z,79.69
2018-12-24T11:06:52.583Z,79.80
2018-12-24T11:07:52.573Z,78.97
2018-12-24T11:08:52.559Z,78.66
2018-12-24T11:09:52.550Z,78.00
2018-12-24T11:10:52.537Z,78.52
2018-12-24T11:11:52.526Z,77.80
2018-12-24T11:12:52.516Z,76.25
2018-12-24T11:13:52.508Z,79.32
2018-12-24T11:14:52.496Z,77.80
2018-12-24T11:15:52.489Z,78.49
2018-12-24T11:16:52.473Z,76.87
2018-12-24T11:17:52.463Z,76.22
2018-12-24T11:18:52.451Z,76.53
2018-12-24T11:19:53.759Z,77.04
2018-12-24T11:20:52.428Z,75.08
2018-12-24T11:21:52.419Z,74.87
2018-12-24T11:22:52.407Z,73.84
2018-12-24T11:23:52.397Z,74.46
2018-12-24T11:24:52.384Z,75.29
2018-12-24T11:25:52.374Z,75.80
2018-12-24T11:26:52.363Z,76.94
2018-12-24T11:27:52.353Z,75.59
2018-12-24T11:28:52.345Z,73.32
2018-12-24T11:29:52.329Z,73.32
2018-12-24T11:30:52.320Z,73.63
2018-12-24T11:31:52.307Z,73.32
2018-12-24T11:32:52.296Z,73.95
2018-12-24T11:33:52.289Z,73.12
2018-12-24T11:34:52.273Z,73.12
2018-12-24T11:35:52.265Z,72.91
2018-12-24T11:36:52.256Z,73.01
2018-12-24T11:37:52.242Z,73.49
2018-12-24T11:38:52.232Z,72.67
2018-12-24T11:39:52.218Z,71.02
2018-12-24T11:40:52.209Z,71.43
2018-12-24T11:41:52.199Z,70.91
2018-12-24T11:42:52.187Z,71.95
2018-12-24T11:43:52.175Z,71.53
2018-12-24T11:44:52.166Z,71.12
2018-12-24T11:45:52.155Z,69.78
2018-12-24T11:46:52.144Z,69.78
2018-12-24T11:47:52.130Z,69.29
2018-12-24T11:48:52.123Z,70.22
2018-12-24T11:49:52.111Z,69.50
2018-12-24T11:50:52.098Z,69.61
2018-12-24T11:51:52.089Z,71.05
2018-12-24T11:52:52.079Z,71.05
2018-12-24T11:53:52.068Z,71.46
2018-12-24T11:54:52.055Z,71.05
2018-12-24T11:55:52.046Z,71.88
2018-12-24T11:56:52.033Z,71.36
2018-12-24T11:57:52.024Z,71.46
2018-12-24T11:58:52.014Z,72.71
2018-12-24T11:59:52.003Z,70.84
2018-12-24T12:00:51.992Z,71.26
2018-12-24T12:01:51.983Z,70.43
2018-12-24T12:02:51.970Z,70.43
2018-12-24T12:03:51.960Z,71.36
2018-12-24T12:04:51.950Z,70.74
2018-12-24T12:05:53.904Z,71.77
2018-12-24T12:06:51.925Z,71.16
2018-12-24T12:07:51.917Z,71.05
2018-12-24T12:08:51.908Z,69.92
2018-12-24T12:09:52.009Z,70.74
2018-12-24T12:10:51.882Z,71.36
2018-12-24T12:11:51.872Z,70.84
2018-12-24T12:12:51.862Z,70.74
2018-12-24T12:13:51.850Z,71.26
2018-12-24T12:14:51.889Z,71.16
2018-12-24T12:15:51.828Z,72.25
2018-12-24T12:16:51.818Z,72.46
2018-12-24T12:17:51.809Z,71.22
2018-12-24T12:18:51.795Z,69.98
2018-12-24T12:19:51.786Z,69.98
2018-12-24T12:20:52.648Z,70.91
2018-12-24T12:21:51.762Z,72.33
2018-12-24T12:22:51.751Z,72.43
2018-12-24T12:23:51.743Z,72.54
2018-12-24T12:24:51.732Z,71.91
2018-12-24T12:25:51.719Z,71.91
2018-12-24T12:26:51.710Z,69.75
2018-12-24T12:27:51.698Z,69.34
2018-12-24T12:28:51.685Z,70.16
2018-12-24T12:29:51.679Z,70.78
2018-12-24T12:30:51.666Z,69.85
2018-12-24T12:31:51.654Z,69.03
2018-12-24T12:32:51.645Z,68.82
2018-12-24T12:33:51.633Z,67.79
2018-12-24T12:34:51.623Z,69.03
2018-12-24T12:35:51.609Z,70.37
2018-12-24T12:36:51.599Z,68.82
2018-12-24T12:37:51.589Z,68.51
2018-12-24T12:38:51.578Z,67.92
2018-12-24T12:39:51.568Z,68.75
2018-12-24T12:40:51.563Z,69.58
2018-12-24T12:41:51.545Z,69.16
2018-12-24T12:42:51.537Z,71.53
2018-12-24T12:43:51.640Z,67.95
2018-12-24T12:44:51.516Z,67.13
2018-12-24T12:45:51.661Z,67.13
2018-12-24T12:46:51.492Z,67.74
2018-12-24T12:47:51.479Z,69.09
2018-12-24T12:48:51.468Z,68.68
2018-12-24T12:49:51.457Z,68.88
2018-12-24T12:50:51.446Z,71.16
2018-12-24T12:51:51.434Z,70.43
2018-12-24T12:52:51.424Z,71.98